logo
Search for airport 
image banner adimage banner adimage banner ad
image banner ad

FABHEJ - Bhejane Game Reserve

Located in , South Africa

ICAO - , IATA -

Data provided by Airmate  

General information

Coordinates: S33°11'49" E23°56'6"
Elevation is 1896 feet MSL.
 
Rated:
View ratings:
[VIEW]
View others Airports in Eastern Cape

Operational data

Special qualification required
Current time UTC:
Current local time:
Weather at : - ( 0 km )
METAR: PKWA 181140Z AUTO 08011KT 10SM SCT050 27/25 A2985 RMK AO2 T02690251 TSNO
View NOTAMs / SUP AIP / TFR affecting this airport [VIEW]
Communications frequencies: [VIEW]

Runways:

RWY identifierQFULength (ft)Width (ft)SurfaceLDA (ft)
12110°278966SAND
30290°278966SAND

Airport contact information

Address: South Africa

Satellite view of FABHEJ